createdAt,value
2023-05-06T00:00:36.273Z,9.08
2023-05-06T00:03:04.543Z,9.02
2023-05-06T00:05:32.731Z,9.12
2023-05-06T00:08:01.452Z,9.11
2023-05-06T00:10:29.727Z,9.00
2023-05-06T00:12:58.105Z,8.93
2023-05-06T00:15:26.564Z,8.97
2023-05-06T00:17:55.807Z,8.87
2023-05-06T00:20:23.374Z,8.98
2023-05-06T00:22:51.863Z,8.87
2023-05-06T00:25:20.716Z,8.95
2023-05-06T00:27:48.818Z,8.82
2023-05-06T00:30:17.142Z,8.72
2023-05-06T00:32:45.740Z,8.69
2023-05-06T00:35:14.031Z,8.68
2023-05-06T00:38:07.850Z,8.63
2023-05-06T00:40:38.982Z,8.68
2023-05-06T00:43:09.581Z,8.77
2023-05-06T00:45:40.295Z,8.91
2023-05-06T00:48:10.920Z,8.89
2023-05-06T00:50:41.817Z,8.97
2023-05-06T00:53:12.688Z,8.71
2023-05-06T00:55:43.154Z,8.71
2023-05-06T00:58:15.181Z,8.61
2023-05-06T01:00:44.849Z,8.82
2023-05-06T01:03:13.140Z,8.66
2023-05-06T01:06:51.165Z,8.64
2023-05-06T01:09:32.140Z,8.74
2023-05-06T01:12:27.372Z,8.65
2023-05-06T01:15:17.421Z,8.64
2023-05-06T01:17:53.783Z,8.52
2023-05-06T01:20:27.039Z,8.46
2023-05-06T01:22:56.829Z,8.29
2023-05-06T01:25:26.247Z,8.29
2023-05-06T01:27:54.628Z,8.27
2023-05-06T01:30:36.054Z,8.41
2023-05-06T01:33:29.470Z,8.30
2023-05-06T01:36:49.711Z,8.44
2023-05-06T01:39:30.192Z,8.35
2023-05-06T01:42:03.826Z,8.39
2023-05-06T01:44:38.864Z,8.30
2023-05-06T01:47:13.576Z,8.32
2023-05-06T01:49:44.237Z,8.26
2023-05-06T01:52:16.742Z,8.25
2023-05-06T01:54:46.821Z,8.18
2023-05-06T01:57:17.015Z,8.34
2023-05-06T01:59:47.117Z,8.34
2023-05-06T02:02:17.218Z,8.33
2023-05-06T02:04:47.311Z,8.40
2023-05-06T02:07:17.385Z,8.31
2023-05-06T02:09:47.480Z,8.31
2023-05-06T02:12:17.534Z,8.32
2023-05-06T02:14:47.595Z,8.21
2023-05-06T02:17:17.734Z,8.24
2023-05-06T02:19:47.836Z,8.28
2023-05-06T02:22:16.229Z,8.20
2023-05-06T02:24:44.642Z,8.35
2023-05-06T02:27:13.062Z,8.24
2023-05-06T02:29:41.473Z,8.13
2023-05-06T02:32:09.963Z,8.13
2023-05-06T02:34:38.289Z,8.06
2023-05-06T02:37:06.713Z,8.12
2023-05-06T02:39:35.203Z,8.24
2023-05-06T02:42:03.991Z,8.11
2023-05-06T02:44:32.014Z,8.00
2023-05-06T02:47:00.766Z,8.03
2023-05-06T02:49:28.797Z,7.91
2023-05-06T02:51:57.267Z,7.91
2023-05-06T02:54:27.423Z,7.89
2023-05-06T02:56:57.166Z,7.86
2023-05-06T02:59:25.694Z,7.94
2023-05-06T03:01:53.877Z,7.89
2023-05-06T03:04:22.679Z,7.86
2023-05-06T03:06:50.774Z,7.88
2023-05-06T03:09:19.268Z,8.01
2023-05-06T03:11:48.653Z,8.04
2023-05-06T03:14:16.334Z,7.99
2023-05-06T03:16:44.388Z,7.95
2023-05-06T03:19:12.881Z,7.90
2023-05-06T03:21:41.400Z,7.95
2023-05-06T03:24:09.621Z,7.88
2023-05-06T03:26:38.148Z,7.83
2023-05-06T03:29:06.428Z,7.74
2023-05-06T03:31:34.912Z,7.61
2023-05-06T03:34:03.162Z,7.58
2023-05-06T03:36:31.952Z,7.61
2023-05-06T03:39:00.005Z,7.72
2023-05-06T03:41:28.875Z,7.73
2023-05-06T03:43:56.835Z,7.62
2023-05-06T03:46:25.232Z,7.41
2023-05-06T03:48:53.624Z,7.39
2023-05-06T03:51:22.469Z,7.43
2023-05-06T03:53:51.813Z,7.43
2023-05-06T03:56:23.450Z,7.42
2023-05-06T03:58:56.487Z,7.38
2023-05-06T04:01:26.457Z,7.53
2023-05-06T04:03:56.496Z,7.53
2023-05-06T04:06:27.029Z,7.51
2023-05-06T04:08:56.987Z,7.46
2023-05-06T04:11:29.617Z,7.42
2023-05-06T04:13:59.817Z,7.34
2023-05-06T04:16:29.850Z,7.23
2023-05-06T04:18:59.839Z,7.29
2023-05-06T04:21:30.000Z,7.30
2023-05-06T04:23:59.989Z,7.17
2023-05-06T04:26:30.012Z,7.20
2023-05-06T04:29:00.020Z,7.12
2023-05-06T04:31:30.288Z,7.20
2023-05-06T04:34:01.211Z,7.18
2023-05-06T04:36:31.190Z,7.36
2023-05-06T04:39:01.219Z,7.25
2023-05-06T04:41:31.341Z,7.24
2023-05-06T04:44:01.662Z,7.13
2023-05-06T04:46:31.676Z,7.24
2023-05-06T04:49:02.013Z,7.41
2023-05-06T04:51:32.203Z,7.36
2023-05-06T04:54:02.297Z,7.43
2023-05-06T04:56:33.714Z,7.31
2023-05-06T04:59:04.043Z,7.32
2023-05-06T05:01:34.081Z,7.25
2023-05-06T05:04:04.168Z,7.24
2023-05-06T05:06:33.039Z,7.28
2023-05-06T05:09:01.012Z,7.28
2023-05-06T05:11:29.406Z,7.29
2023-05-06T05:13:59.565Z,7.35
2023-05-06T05:16:29.226Z,7.43
2023-05-06T05:18:57.725Z,7.34
2023-05-06T05:21:26.045Z,7.37
2023-05-06T05:23:54.450Z,7.37
2023-05-06T05:26:22.911Z,7.32
2023-05-06T05:28:51.231Z,7.29
2023-05-06T05:31:19.831Z,7.12
2023-05-06T05:33:48.207Z,7.21
2023-05-06T05:36:16.700Z,7.14
2023-05-06T05:38:45.659Z,7.10
2023-05-06T05:41:14.948Z,7.00
2023-05-06T05:43:46.794Z,7.02
2023-05-06T05:46:17.193Z,7.06
2023-05-06T05:48:47.192Z,7.04
2023-05-06T05:51:17.367Z,7.10
2023-05-06T05:53:47.362Z,7.13
2023-05-06T05:56:17.519Z,7.11
2023-05-06T05:58:47.650Z,7.16
2023-05-06T06:01:18.277Z,7.29
2023-05-06T06:03:48.475Z,7.10
2023-05-06T06:06:18.670Z,7.05
2023-05-06T06:08:48.678Z,7.32
2023-05-06T06:11:18.642Z,7.14
2023-05-06T06:13:48.669Z,7.25
2023-05-06T06:16:18.722Z,7.23
2023-05-06T06:18:48.976Z,7.23
2023-05-06T06:21:19.040Z,7.37
2023-05-06T06:23:49.055Z,7.27
2023-05-06T06:26:19.178Z,7.36
2023-05-06T06:28:49.192Z,7.34
2023-05-06T06:31:19.204Z,7.36
2023-05-06T06:33:49.405Z,7.28
2023-05-06T06:36:19.456Z,7.25
2023-05-06T06:38:47.794Z,7.17
2023-05-06T06:41:16.373Z,7.09
2023-05-06T06:43:44.747Z,7.16
2023-05-06T06:46:13.259Z,7.10
2023-05-06T06:48:41.635Z,7.10
2023-05-06T06:51:10.019Z,6.99
2023-05-06T06:53:38.480Z,6.94
2023-05-06T06:56:12.213Z,6.96
2023-05-06T06:58:42.410Z,7.16
2023-05-06T07:01:12.972Z,7.14
2023-05-06T07:03:43.187Z,7.08
2023-05-06T07:06:13.407Z,7.28
2023-05-06T07:08:43.420Z,7.28
2023-05-06T07:11:14.640Z,7.35
2023-05-06T07:13:44.685Z,7.10
2023-05-06T07:16:14.756Z,7.21
2023-05-06T07:18:45.414Z,7.26
2023-05-06T07:21:15.392Z,7.00
2023-05-06T07:23:45.538Z,7.07
2023-05-06T07:26:15.754Z,7.07
2023-05-06T07:28:45.782Z,7.24
2023-05-06T07:31:16.499Z,7.36
2023-05-06T07:33:47.976Z,7.36
2023-05-06T07:36:18.083Z,7.21
2023-05-06T07:38:46.392Z,7.31
2023-05-06T07:41:14.885Z,7.30
2023-05-06T07:43:43.295Z,7.28
2023-05-06T07:46:12.079Z,7.27
2023-05-06T07:48:40.198Z,7.23
2023-05-06T07:51:08.494Z,7.28
2023-05-06T07:53:38.330Z,7.40
2023-05-06T07:56:05.873Z,7.54
2023-05-06T07:58:33.808Z,7.46
2023-05-06T08:01:03.477Z,7.50
2023-05-06T08:03:31.816Z,7.52
2023-05-06T08:05:59.184Z,7.38
2023-05-06T08:08:28.200Z,7.44
2023-05-06T08:10:58.051Z,7.39
2023-05-06T08:13:28.374Z,7.41
2023-05-06T08:15:56.319Z,7.33
2023-05-06T08:18:24.185Z,7.31
2023-05-06T08:20:52.687Z,7.23
2023-05-06T08:23:21.091Z,7.10
2023-05-06T08:25:49.474Z,7.12
2023-05-06T08:28:17.938Z,7.43
2023-05-06T08:30:48.617Z,7.32
2023-05-06T08:33:19.647Z,7.34
2023-05-06T08:35:50.940Z,7.31
2023-05-06T08:38:21.072Z,7.34
2023-05-06T08:40:54.566Z,7.38
2023-05-06T08:43:28.840Z,7.45
2023-05-06T08:45:59.350Z,7.46
2023-05-06T08:48:30.141Z,7.40
2023-05-06T08:51:04.363Z,7.45
2023-05-06T08:53:34.658Z,7.52
2023-05-06T08:56:08.936Z,7.57
2023-05-06T08:58:44.297Z,7.59
2023-05-06T09:01:16.058Z,7.55
2023-05-06T09:03:49.019Z,7.55
2023-05-06T09:06:19.007Z,7.44
2023-05-06T09:08:49.104Z,7.47
2023-05-06T09:11:28.670Z,7.45
2023-05-06T09:14:16.000Z,7.41
2023-05-06T09:16:50.844Z,7.37
2023-05-06T09:19:22.898Z,7.53
2023-05-06T09:21:53.203Z,7.58
2023-05-06T09:24:24.764Z,7.68
2023-05-06T09:26:57.040Z,7.61
2023-05-06T09:29:26.334Z,7.66
2023-05-06T09:31:55.084Z,7.79
2023-05-06T09:34:24.856Z,7.81
2023-05-06T09:36:53.953Z,7.82
2023-05-06T09:39:27.118Z,7.86
2023-05-06T09:41:55.290Z,7.85
2023-05-06T09:44:27.032Z,7.78
2023-05-06T09:46:56.625Z,7.82
2023-05-06T09:49:26.840Z,7.98
2023-05-06T09:51:57.784Z,8.04
2023-05-06T09:54:28.908Z,8.08
2023-05-06T09:57:01.208Z,8.10
2023-05-06T09:59:32.477Z,8.25
2023-05-06T10:02:04.932Z,8.32
2023-05-06T10:04:39.892Z,8.10
2023-05-06T10:07:12.677Z,8.11
2023-05-06T10:09:43.050Z,8.35
2023-05-06T10:12:16.605Z,8.43
2023-05-06T10:14:47.362Z,8.31
2023-05-06T10:17:19.104Z,8.20
2023-05-06T10:19:57.291Z,8.20
2023-05-06T10:23:04.564Z,8.37
2023-05-06T10:25:38.148Z,8.34
2023-05-06T10:28:22.237Z,8.35
2023-05-06T10:31:05.190Z,8.32
2023-05-06T10:33:35.267Z,8.21
2023-05-06T10:36:20.589Z,8.29
2023-05-06T10:38:56.707Z,8.29
2023-05-06T10:41:29.421Z,8.33
2023-05-06T10:44:00.281Z,8.15
2023-05-06T10:46:31.177Z,8.22
2023-05-06T10:49:08.550Z,8.26
2023-05-06T10:51:39.352Z,8.24
2023-05-06T10:54:24.188Z,8.42
2023-05-06T10:56:54.259Z,8.46
2023-05-06T10:59:26.815Z,8.38
2023-05-06T11:02:09.739Z,8.27
2023-05-06T11:04:40.482Z,8.34
2023-05-06T11:07:15.569Z,8.35
2023-05-06T11:10:01.643Z,8.48
2023-05-06T11:12:53.759Z,8.42
2023-05-06T11:15:39.549Z,8.18
2023-05-06T11:18:29.498Z,8.07
2023-05-06T11:21:03.212Z,8.17
2023-05-06T11:23:52.298Z,8.21
2023-05-06T11:26:20.522Z,8.21
2023-05-06T11:28:51.663Z,8.19
2023-05-06T11:31:22.993Z,8.22
2023-05-06T11:33:55.299Z,8.25
2023-05-06T11:36:24.647Z,8.34
2023-05-06T11:38:54.665Z,8.37
2023-05-06T11:41:24.340Z,8.18
2023-05-06T11:43:54.147Z,8.13
2023-05-06T11:46:25.551Z,8.16
2023-05-06T11:48:54.641Z,8.20
2023-05-06T11:51:26.077Z,8.21
2023-05-06T11:54:11.079Z,8.27
2023-05-06T11:56:53.738Z,8.06
2023-05-06T11:59:38.894Z,8.04
2023-05-06T12:02:13.725Z,8.08
2023-05-06T12:04:48.420Z,8.16
2023-05-06T12:07:17.761Z,8.15
2023-05-06T12:09:49.748Z,8.20
2023-05-06T12:12:24.378Z,8.21
2023-05-06T12:14:54.523Z,8.09
2023-05-06T12:17:24.794Z,8.20
2023-05-06T12:19:54.717Z,8.27
2023-05-06T12:22:27.448Z,8.15
2023-05-06T12:24:54.961Z,8.09
2023-05-06T12:27:35.818Z,7.98
2023-05-06T12:30:05.337Z,8.20
2023-05-06T12:32:32.495Z,8.14
2023-05-06T12:35:05.987Z,8.05
2023-05-06T12:37:36.135Z,7.99
2023-05-06T12:40:16.968Z,7.90
2023-05-06T12:42:55.505Z,7.90
2023-05-06T12:45:25.863Z,7.89
2023-05-06T12:48:02.821Z,7.91
2023-05-06T12:50:48.005Z,7.91
2023-05-06T12:53:33.789Z,7.65
2023-05-06T12:56:03.301Z,7.72
2023-05-06T12:58:30.452Z,7.79
2023-05-06T13:01:00.059Z,7.85
2023-05-06T13:03:30.091Z,7.98
2023-05-06T13:05:59.923Z,8.08
2023-05-06T13:08:29.798Z,8.30
2023-05-06T13:11:01.790Z,8.34
2023-05-06T13:13:31.764Z,8.29
2023-05-06T13:16:01.786Z,8.37
2023-05-06T13:18:30.119Z,8.40
2023-05-06T13:21:00.382Z,8.28
2023-05-06T13:23:29.848Z,8.24
2023-05-06T13:26:04.923Z,8.28
2023-05-06T13:28:36.871Z,8.41
2023-05-06T13:31:08.453Z,8.64
2023-05-06T13:33:37.941Z,8.60
2023-05-06T13:36:08.294Z,8.59
2023-05-06T13:38:37.798Z,8.74
2023-05-06T13:41:08.107Z,8.75
2023-05-06T13:43:38.088Z,8.53
2023-05-06T13:46:09.452Z,8.47
2023-05-06T13:48:39.449Z,8.18
2023-05-06T13:51:09.235Z,8.30
2023-05-06T13:53:39.635Z,8.33
2023-05-06T13:56:09.770Z,8.44
2023-05-06T13:58:39.692Z,8.70
2023-05-06T14:01:09.642Z,8.65
2023-05-06T14:03:39.342Z,8.72
2023-05-06T14:06:09.563Z,8.49
2023-05-06T14:08:39.652Z,8.45
2023-05-06T14:11:12.223Z,8.45
2023-05-06T14:13:42.185Z,8.41
2023-05-06T14:16:11.994Z,8.42
2023-05-06T14:18:41.898Z,8.50
2023-05-06T14:21:11.668Z,8.42
2023-05-06T14:23:41.535Z,8.23
2023-05-06T14:26:11.264Z,8.30
2023-05-06T14:28:41.123Z,8.36
2023-05-06T14:31:10.935Z,8.18
2023-05-06T14:33:40.963Z,7.92
2023-05-06T14:36:10.887Z,7.91
2023-05-06T14:38:39.288Z,7.75
2023-05-06T14:41:07.826Z,7.96
2023-05-06T14:43:37.240Z,8.13
2023-05-06T14:46:05.159Z,8.39
2023-05-06T14:48:33.547Z,8.32
2023-05-06T14:51:02.138Z,8.49
2023-05-06T14:53:30.633Z,8.19
2023-05-06T14:55:59.014Z,7.97
2023-05-06T14:58:27.570Z,8.01
2023-05-06T15:00:57.079Z,8.05
2023-05-06T15:03:24.622Z,8.02
2023-05-06T15:05:53.230Z,8.05
2023-05-06T15:08:22.010Z,7.82
2023-05-06T15:10:50.884Z,7.85
2023-05-06T15:13:19.339Z,7.69
2023-05-06T15:15:47.636Z,7.58
2023-05-06T15:18:16.139Z,7.60
2023-05-06T15:20:44.468Z,7.67
2023-05-06T15:23:12.941Z,7.77
2023-05-06T15:25:41.762Z,7.72
2023-05-06T15:28:10.301Z,7.75
2023-05-06T15:30:39.356Z,7.86
2023-05-06T15:33:07.351Z,8.12
2023-05-06T15:35:35.984Z,8.02
2023-05-06T15:38:04.677Z,7.91
2023-05-06T15:40:32.810Z,7.83
2023-05-06T15:43:01.416Z,7.83
2023-05-06T15:45:29.788Z,8.00
2023-05-06T15:47:58.300Z,8.07
2023-05-06T15:50:33.539Z,8.00
2023-05-06T15:53:04.177Z,7.78
2023-05-06T15:55:42.382Z,7.84
2023-05-06T15:58:14.247Z,7.90
2023-05-06T16:00:43.354Z,7.79
2023-05-06T16:03:12.211Z,8.10
2023-05-06T16:05:42.740Z,8.02
2023-05-06T16:08:12.460Z,8.06
2023-05-06T16:10:42.374Z,8.01
2023-05-06T16:13:12.208Z,8.02
2023-05-06T16:15:42.234Z,8.15
2023-05-06T16:18:12.138Z,8.08
2023-05-06T16:20:42.275Z,7.92
2023-05-06T16:23:13.722Z,7.88
2023-05-06T16:25:43.680Z,7.77
2023-05-06T16:28:13.500Z,7.90
2023-05-06T16:30:46.457Z,7.78
2023-05-06T16:33:16.395Z,7.78
2023-05-06T16:35:46.530Z,7.89
2023-05-06T16:38:16.445Z,7.96
2023-05-06T16:40:51.289Z,7.94
2023-05-06T16:43:21.346Z,8.09
2023-05-06T16:45:51.126Z,7.93
2023-05-06T16:48:21.184Z,7.80
2023-05-06T16:50:51.944Z,7.85
2023-05-06T16:53:21.957Z,7.89
2023-05-06T16:55:51.683Z,7.81
2023-05-06T16:58:21.962Z,7.74
2023-05-06T17:00:54.218Z,7.92
2023-05-06T17:03:24.213Z,7.82
2023-05-06T17:05:54.618Z,7.76
2023-05-06T17:08:26.928Z,7.70
2023-05-06T17:10:56.402Z,7.69
2023-05-06T17:13:24.523Z,7.67
2023-05-06T17:15:52.921Z,7.72
2023-05-06T17:18:21.293Z,7.72
2023-05-06T17:20:55.864Z,7.66
2023-05-06T17:23:27.222Z,7.69
2023-05-06T17:25:57.424Z,7.68
2023-05-06T17:28:27.657Z,7.72
2023-05-06T17:30:57.108Z,7.68
2023-05-06T17:33:26.971Z,7.79
2023-05-06T17:35:56.785Z,7.79
2023-05-06T17:38:26.574Z,7.74
2023-05-06T17:40:56.476Z,7.80
2023-05-06T17:43:26.151Z,7.78
2023-05-06T17:45:56.128Z,7.87
2023-05-06T17:48:26.223Z,7.79
2023-05-06T17:51:03.185Z,7.76
2023-05-06T17:53:34.894Z,7.70
2023-05-06T17:56:04.538Z,7.66
2023-05-06T17:58:34.480Z,7.64
2023-05-06T18:01:04.444Z,7.66
2023-05-06T18:03:34.263Z,7.61
2023-05-06T18:06:04.324Z,7.69
2023-05-06T18:08:34.258Z,7.86
2023-05-06T18:11:04.050Z,7.78
2023-05-06T18:13:36.814Z,7.52
2023-05-06T18:16:07.063Z,7.47
2023-05-06T18:18:36.922Z,7.50
2023-05-06T18:21:06.612Z,7.66
2023-05-06T18:23:36.341Z,7.73
2023-05-06T18:26:06.389Z,7.87
2023-05-06T18:28:38.084Z,7.62
2023-05-06T18:31:08.257Z,7.53
2023-05-06T18:33:37.823Z,7.46
2023-05-06T18:36:10.879Z,7.42
2023-05-06T18:38:40.267Z,7.59
2023-05-06T18:41:09.188Z,7.50
2023-05-06T18:43:37.108Z,7.61
2023-05-06T18:46:05.697Z,7.64
2023-05-06T18:48:34.169Z,7.50
2023-05-06T18:51:17.518Z,7.57
2023-05-06T18:53:47.893Z,7.80
2023-05-06T18:56:17.878Z,7.63
2023-05-06T18:58:47.590Z,7.52
2023-05-06T19:01:17.495Z,7.64
2023-05-06T19:03:47.472Z,7.57
2023-05-06T19:06:15.870Z,7.54
2023-05-06T19:08:44.296Z,7.51
2023-05-06T19:11:21.334Z,7.59
2023-05-06T19:13:51.086Z,7.48
2023-05-06T19:16:19.592Z,7.53
2023-05-06T19:18:49.838Z,7.45
2023-05-06T19:21:19.984Z,7.61
2023-05-06T19:23:50.260Z,7.73
2023-05-06T19:26:20.275Z,7.57
2023-05-06T19:28:50.035Z,7.47
2023-05-06T19:31:19.889Z,7.44
2023-05-06T19:33:50.090Z,7.55
2023-05-06T19:36:20.003Z,7.44
2023-05-06T19:38:49.661Z,7.72
2023-05-06T19:41:19.414Z,7.52
2023-05-06T19:43:49.122Z,7.46
2023-05-06T19:46:18.930Z,7.62
2023-05-06T19:48:48.652Z,7.62
2023-05-06T19:51:18.366Z,7.65
2023-05-06T19:53:49.171Z,7.54
2023-05-06T19:56:20.340Z,7.46
2023-05-06T19:58:53.549Z,7.45
2023-05-06T20:01:24.016Z,7.45
2023-05-06T20:03:55.244Z,7.44
2023-05-06T20:06:25.259Z,7.55
2023-05-06T20:08:55.068Z,7.54
2023-05-06T20:11:23.502Z,7.47
2023-05-06T20:13:52.189Z,7.43
2023-05-06T20:16:20.614Z,7.45
2023-05-06T20:18:49.587Z,7.58
2023-05-06T20:21:17.372Z,7.52
2023-05-06T20:23:45.766Z,7.52
2023-05-06T20:26:14.266Z,7.54
2023-05-06T20:28:42.657Z,7.54
2023-05-06T20:31:11.409Z,7.38
2023-05-06T20:33:39.479Z,7.29
2023-05-06T20:36:07.973Z,7.30
2023-05-06T20:38:36.658Z,7.24
2023-05-06T20:41:04.782Z,7.30
2023-05-06T20:43:35.390Z,7.35
2023-05-06T20:46:05.640Z,7.52
2023-05-06T20:48:33.017Z,7.25
2023-05-06T20:51:01.476Z,7.26
2023-05-06T20:53:29.908Z,7.36
2023-05-06T20:55:58.314Z,7.23
2023-05-06T20:58:28.680Z,7.20
2023-05-06T21:00:58.897Z,7.22
2023-05-06T21:03:30.581Z,7.44
2023-05-06T21:06:00.698Z,7.31
2023-05-06T21:08:30.447Z,7.21
2023-05-06T21:11:00.343Z,7.35
2023-05-06T21:13:30.114Z,7.22
2023-05-06T21:16:00.061Z,7.31
2023-05-06T21:18:30.263Z,7.42
2023-05-06T21:21:00.399Z,7.54
2023-05-06T21:23:30.414Z,7.49
2023-05-06T21:26:00.187Z,7.34
2023-05-06T21:28:30.185Z,7.33
2023-05-06T21:31:00.022Z,7.31
2023-05-06T21:33:30.121Z,7.25
2023-05-06T21:36:00.241Z,7.24
2023-05-06T21:38:30.312Z,7.17
2023-05-06T21:41:00.223Z,7.25
2023-05-06T21:43:31.322Z,7.53
2023-05-06T21:46:04.361Z,7.42
2023-05-06T21:48:34.613Z,7.30
2023-05-06T21:51:04.524Z,7.26
2023-05-06T21:53:34.550Z,7.32
2023-05-06T21:56:04.745Z,7.34
2023-05-06T21:58:34.731Z,7.37
2023-05-06T22:01:04.106Z,7.31
2023-05-06T22:03:34.092Z,7.36
2023-05-06T22:06:05.541Z,7.36
2023-05-06T22:08:35.139Z,7.29
2023-05-06T22:11:05.068Z,7.33
2023-05-06T22:13:35.300Z,7.40
2023-05-06T22:16:05.444Z,7.27
2023-05-06T22:18:36.146Z,7.30
2023-05-06T22:21:06.212Z,7.25
2023-05-06T22:23:36.160Z,7.33
2023-05-06T22:26:06.251Z,7.45
2023-05-06T22:28:36.057Z,7.38
2023-05-06T22:31:06.056Z,7.30
2023-05-06T22:33:36.093Z,7.38
2023-05-06T22:36:06.188Z,7.50
2023-05-06T22:38:35.998Z,7.59
2023-05-06T22:41:05.761Z,7.49
2023-05-06T22:43:35.548Z,7.51
2023-05-06T22:46:05.399Z,7.45
2023-05-06T22:48:33.795Z,7.31
2023-05-06T22:51:03.489Z,7.31
2023-05-06T22:53:30.742Z,7.24
2023-05-06T22:55:59.073Z,7.29
2023-05-06T22:58:27.573Z,7.28
2023-05-06T23:00:56.674Z,7.31
2023-05-06T23:03:24.519Z,7.34
2023-05-06T23:05:52.851Z,7.41
2023-05-06T23:08:21.411Z,7.50
2023-05-06T23:10:49.974Z,7.44
2023-05-06T23:13:18.638Z,7.32
2023-05-06T23:15:47.094Z,7.40
2023-05-06T23:18:15.833Z,7.31
2023-05-06T23:20:44.635Z,7.48
2023-05-06T23:23:12.623Z,7.52
2023-05-06T23:25:41.007Z,7.49
2023-05-06T23:28:09.374Z,7.44
2023-05-06T23:30:37.810Z,7.44
2023-05-06T23:33:07.864Z,7.48
2023-05-06T23:35:38.191Z,7.40
2023-05-06T23:38:06.646Z,7.37
2023-05-06T23:40:34.986Z,7.34
2023-05-06T23:43:03.365Z,7.36
2023-05-06T23:45:31.919Z,7.33
2023-05-06T23:48:00.771Z,7.28
2023-05-06T23:50:29.336Z,7.52
2023-05-06T23:52:57.686Z,7.42
2023-05-06T23:55:26.880Z,7.44
2023-05-06T23:57:55.031Z,7.45
